createdAt,value
2023-11-15T00:00:07.203Z,99893.54
2023-11-15T00:02:38.253Z,99904.16
2023-11-15T00:05:07.897Z,99909.85
2023-11-15T00:07:38.427Z,99912.02
2023-11-15T00:10:10.070Z,99916.31
2023-11-15T00:12:40.879Z,99922.15
2023-11-15T00:15:13.217Z,99927.77
2023-11-15T00:17:43.883Z,99928.97
2023-11-15T00:20:15.592Z,99938.50
2023-11-15T00:22:48.441Z,99946.83
2023-11-15T00:25:18.972Z,99950.39
2023-11-15T00:27:49.548Z,99953.73
2023-11-15T00:30:30.159Z,99958.89
2023-11-15T00:33:01.130Z,99966.80
2023-11-15T00:35:30.881Z,99974.90
2023-11-15T00:38:02.341Z,99976.16
2023-11-15T00:40:32.885Z,99978.96
2023-11-15T00:43:04.743Z,99988.39
2023-11-15T00:45:35.312Z,99995.28
2023-11-15T00:48:06.697Z,99999.45
2023-11-15T00:50:35.719Z,100006.75
2023-11-15T00:53:06.451Z,100007.52
2023-11-15T00:55:36.789Z,100004.69
2023-11-15T00:58:10.348Z,100009.95
2023-11-15T01:00:46.290Z,100018.30
2023-11-15T01:03:27.656Z,100019.67
2023-11-15T01:05:57.695Z,100024.98
2023-11-15T01:08:28.186Z,100031.67
2023-11-15T01:10:59.865Z,100033.11
2023-11-15T01:13:30.395Z,100039.60
2023-11-15T01:16:01.953Z,100040.55
2023-11-15T01:18:34.660Z,100038.73
2023-11-15T01:21:06.649Z,100044.41
2023-11-15T01:23:37.811Z,100046.87
2023-11-15T01:26:08.830Z,100044.12
2023-11-15T01:28:42.100Z,100048.52
2023-11-15T01:31:12.595Z,100041.67
2023-11-15T01:33:46.237Z,100050.83
2023-11-15T01:36:17.207Z,100060.67
2023-11-15T01:38:47.693Z,100060.70
2023-11-15T01:41:18.811Z,100067.98
2023-11-15T01:43:56.767Z,100070.35
2023-11-15T01:46:27.786Z,100074.33
2023-11-15T01:49:00.824Z,100077.31
2023-11-15T01:51:32.014Z,100079.23
2023-11-15T01:54:02.761Z,100081.55
2023-11-15T01:56:34.603Z,100088.95
2023-11-15T01:59:17.128Z,100087.15
2023-11-15T02:01:46.230Z,100101.66
2023-11-15T02:04:16.733Z,100102.60
2023-11-15T02:06:47.250Z,100112.92
2023-11-15T02:09:21.544Z,100117.27
2023-11-15T02:11:53.090Z,100116.41
2023-11-15T02:14:23.603Z,100119.81
2023-11-15T02:16:54.997Z,100109.49
2023-11-15T02:19:23.928Z,100119.73
2023-11-15T02:21:54.340Z,100123.58
2023-11-15T02:24:24.982Z,100128.23
2023-11-15T02:26:55.424Z,100124.39
2023-11-15T02:29:26.323Z,100129.00
2023-11-15T02:31:56.745Z,100135.70
2023-11-15T02:34:36.760Z,100141.66
2023-11-15T02:37:08.350Z,100147.11
2023-11-15T02:39:39.022Z,100148.73
2023-11-15T02:42:09.902Z,100150.05
2023-11-15T02:44:40.358Z,100154.66
2023-11-15T02:47:10.683Z,100152.45
2023-11-15T02:49:41.096Z,100156.68
2023-11-15T02:52:11.533Z,100166.96
2023-11-15T02:54:41.916Z,100166.83
2023-11-15T02:57:13.107Z,100172.92
2023-11-15T02:59:43.580Z,100178.16
2023-11-15T03:02:15.546Z,100174.77
2023-11-15T03:04:46.558Z,100174.27
2023-11-15T03:07:16.944Z,100180.19
2023-11-15T03:09:47.398Z,100184.48
2023-11-15T03:12:17.883Z,100194.48
2023-11-15T03:14:49.105Z,100190.08
2023-11-15T03:17:18.913Z,100190.59
2023-11-15T03:19:49.890Z,100192.11
2023-11-15T03:22:21.952Z,100190.94
2023-11-15T03:24:55.121Z,100188.66
2023-11-15T03:27:28.026Z,100195.90
2023-11-15T03:29:58.702Z,100199.00
2023-11-15T03:32:30.077Z,100207.41
2023-11-15T03:35:00.763Z,100215.06
2023-11-15T03:37:34.423Z,100217.40
2023-11-15T03:40:21.010Z,100220.02
2023-11-15T03:42:51.897Z,100219.98
2023-11-15T03:45:22.458Z,100227.19
2023-11-15T03:47:53.671Z,100233.95
2023-11-15T03:50:24.496Z,100236.09
2023-11-15T03:52:55.195Z,100236.26
2023-11-15T03:55:25.972Z,100239.41
2023-11-15T03:57:56.474Z,100240.52
2023-11-15T04:00:29.353Z,100239.26
2023-11-15T04:02:59.835Z,100247.73
2023-11-15T04:05:33.306Z,100255.74
2023-11-15T04:08:03.845Z,100261.77
2023-11-15T04:10:34.896Z,100271.33
2023-11-15T04:13:15.715Z,100277.98
2023-11-15T04:15:46.218Z,100278.61
2023-11-15T04:18:18.952Z,100278.70
2023-11-15T04:20:49.447Z,100279.33
2023-11-15T04:23:20.434Z,100284.11
2023-11-15T04:25:51.510Z,100290.46
2023-11-15T04:28:22.790Z,100290.64
2023-11-15T04:30:55.736Z,100295.46
2023-11-15T04:33:26.147Z,100294.07
2023-11-15T04:35:56.535Z,100302.34
2023-11-15T04:38:27.974Z,100306.45
2023-11-15T04:40:59.755Z,100313.67
2023-11-15T04:43:30.463Z,100318.61
2023-11-15T04:46:01.090Z,100313.87
2023-11-15T04:48:31.745Z,100320.20
2023-11-15T04:51:02.255Z,100312.79
2023-11-15T04:53:33.052Z,100313.66
2023-11-15T04:56:03.921Z,100311.38
2023-11-15T04:58:36.968Z,100317.01
2023-11-15T05:01:08.134Z,100317.55
2023-11-15T05:03:42.058Z,100317.45
2023-11-15T05:06:13.009Z,100320.83
2023-11-15T05:08:43.504Z,100318.04
2023-11-15T05:11:14.711Z,100319.86
2023-11-15T05:13:45.143Z,100317.92
2023-11-15T05:16:36.094Z,100315.46
2023-11-15T05:19:14.664Z,100320.23
2023-11-15T05:21:45.405Z,100312.27
2023-11-15T05:24:16.072Z,100315.27
2023-11-15T05:26:51.334Z,100308.95
2023-11-15T05:29:25.582Z,100313.91
2023-11-15T05:31:56.237Z,100319.69
2023-11-15T05:34:29.898Z,100319.58
2023-11-15T05:37:00.291Z,100328.45
2023-11-15T05:39:41.496Z,100325.34
2023-11-15T05:42:11.833Z,100329.30
2023-11-15T05:44:42.307Z,100329.72
2023-11-15T05:47:14.996Z,100330.36
2023-11-15T05:49:45.485Z,100337.16
2023-11-15T05:52:16.495Z,100342.34
2023-11-15T05:54:48.173Z,100346.86
2023-11-15T05:57:21.950Z,100349.81
2023-11-15T05:59:52.502Z,100348.58
2023-11-15T06:02:23.011Z,100349.88
2023-11-15T06:04:54.208Z,100355.08
2023-11-15T06:07:26.381Z,100357.74
2023-11-15T06:09:57.097Z,100361.10
2023-11-15T06:12:29.794Z,100359.17
2023-11-15T06:15:00.327Z,100365.89
2023-11-15T06:17:38.963Z,100369.50
2023-11-15T06:20:12.605Z,100372.48
2023-11-15T06:22:43.101Z,100371.41
2023-11-15T06:25:17.234Z,100364.14
2023-11-15T06:27:47.904Z,100364.43
2023-11-15T06:30:20.485Z,100360.73
2023-11-15T06:32:51.040Z,100366.13
2023-11-15T06:35:22.025Z,100368.60
2023-11-15T06:37:52.462Z,100378.46
2023-11-15T06:40:23.644Z,100381.42
2023-11-15T06:42:54.024Z,100388.98
2023-11-15T06:45:24.594Z,100396.34
2023-11-15T06:47:55.201Z,100403.16
2023-11-15T06:50:27.288Z,100406.88
2023-11-15T06:52:57.906Z,100411.48
2023-11-15T06:55:28.836Z,100420.13
2023-11-15T06:58:00.996Z,100422.39
2023-11-15T07:00:34.312Z,100427.52
2023-11-15T07:03:05.140Z,100426.77
2023-11-15T07:05:35.722Z,100427.80
2023-11-15T07:08:08.147Z,100435.52
2023-11-15T07:10:38.761Z,100442.38
2023-11-15T07:13:09.984Z,100440.08
2023-11-15T07:15:40.973Z,100441.46
2023-11-15T07:18:13.354Z,100449.86
2023-11-15T07:20:44.005Z,100456.15
2023-11-15T07:23:14.600Z,100451.73
2023-11-15T07:25:45.054Z,100451.17
2023-11-15T07:28:16.131Z,100451.15
2023-11-15T07:30:46.515Z,100457.98
2023-11-15T07:33:17.026Z,100453.41
2023-11-15T07:35:47.601Z,100457.03
2023-11-15T07:38:18.799Z,100459.13
2023-11-15T07:40:50.059Z,100464.02
2023-11-15T07:43:20.544Z,100464.35
2023-11-15T07:45:55.171Z,100465.36
2023-11-15T07:48:28.266Z,100466.56
2023-11-15T07:51:19.445Z,100472.34
2023-11-15T07:53:50.869Z,100480.96
2023-11-15T07:56:21.405Z,100480.08
2023-11-15T07:58:51.955Z,100479.03
2023-11-15T08:01:23.929Z,100479.02
2023-11-15T08:03:55.388Z,100483.16
2023-11-15T08:06:26.198Z,100487.01
2023-11-15T08:08:58.124Z,100491.42
2023-11-15T08:11:28.556Z,100493.83
2023-11-15T08:14:00.524Z,100494.68
2023-11-15T08:16:33.344Z,100500.14
2023-11-15T08:19:04.347Z,100505.23
2023-11-15T08:21:34.831Z,100508.19
2023-11-15T08:24:06.766Z,100510.33
2023-11-15T08:26:38.039Z,100517.04
2023-11-15T08:29:07.058Z,100517.23
2023-11-15T08:31:38.601Z,100512.33
2023-11-15T08:34:09.193Z,100512.50
2023-11-15T08:36:39.948Z,100513.20
2023-11-15T08:39:14.082Z,100519.33
2023-11-15T08:41:47.222Z,100519.81
2023-11-15T08:44:18.888Z,100520.78
2023-11-15T08:46:51.289Z,100522.77
2023-11-15T08:49:22.113Z,100521.05
2023-11-15T08:51:54.086Z,100527.42
2023-11-15T08:54:24.568Z,100532.55
2023-11-15T08:56:56.051Z,100539.96
2023-11-15T08:59:27.957Z,100540.73
2023-11-15T09:01:58.544Z,100543.08
2023-11-15T09:04:29.182Z,100540.64
2023-11-15T09:07:00.199Z,100537.08
2023-11-15T09:09:31.716Z,100539.11
2023-11-15T09:14:35.835Z,100546.04
2023-11-15T09:17:13.717Z,100550.02
2023-11-15T09:19:47.661Z,100556.45
2023-11-15T09:22:20.808Z,100553.89
2023-11-15T09:25:03.579Z,100557.43
2023-11-15T09:27:37.889Z,100554.19
2023-11-15T09:30:11.948Z,100553.23
2023-11-15T09:32:43.837Z,100550.35
2023-11-15T09:35:16.252Z,100552.84
2023-11-15T09:37:47.464Z,100552.05
2023-11-15T09:40:16.663Z,100566.63
2023-11-15T09:42:48.453Z,100568.70
2023-11-15T09:45:24.912Z,100568.04
2023-11-15T09:47:59.540Z,100565.73
2023-11-15T09:50:34.704Z,100564.17
2023-11-15T09:53:07.236Z,100566.14
2023-11-15T09:55:37.803Z,100562.10
2023-11-15T09:58:08.395Z,100568.64
2023-11-15T10:00:39.032Z,100573.79
2023-11-15T10:03:09.663Z,100573.27
2023-11-15T10:05:44.005Z,100575.02
2023-11-15T10:08:18.252Z,100577.06
2023-11-15T10:10:50.141Z,100575.89
2023-11-15T10:13:22.320Z,100576.32
2023-11-15T10:15:55.822Z,100577.88
2023-11-15T10:18:35.240Z,100583.48
2023-11-15T10:21:16.204Z,100580.59
2023-11-15T10:23:52.526Z,100582.92
2023-11-15T10:26:38.707Z,100577.84
2023-11-15T10:29:14.007Z,100585.42
2023-11-15T10:32:03.183Z,100591.63
2023-11-15T10:34:36.191Z,100587.55
2023-11-15T10:37:11.530Z,100590.38
2023-11-15T10:39:45.426Z,100592.83
2023-11-15T10:42:20.041Z,100598.06
2023-11-15T10:44:54.699Z,100598.39
2023-11-15T10:47:36.565Z,100595.39
2023-11-15T10:50:16.994Z,100591.01
2023-11-15T10:52:49.131Z,100592.42
2023-11-15T10:55:21.050Z,100594.38
2023-11-15T10:57:52.601Z,100595.72
2023-11-15T11:00:30.564Z,100592.44
2023-11-15T11:03:01.160Z,100587.69
2023-11-15T11:05:43.222Z,100583.64
2023-11-15T11:08:26.499Z,100581.46
2023-11-15T11:11:09.226Z,100581.33
2023-11-15T11:13:41.905Z,100580.59
2023-11-15T11:16:37.371Z,100581.46
2023-11-15T11:19:18.345Z,100574.02
2023-11-15T11:22:09.993Z,100572.14
2023-11-15T11:24:43.925Z,100579.45
2023-11-15T11:27:35.541Z,100573.89
2023-11-15T11:30:22.239Z,100576.15
2023-11-15T11:33:08.332Z,100574.89
2023-11-15T11:35:42.049Z,100573.52
2023-11-15T11:38:33.377Z,100580.41
2023-11-15T11:41:06.004Z,100589.13
2023-11-15T11:43:36.575Z,100590.66
2023-11-15T11:46:20.039Z,100590.09
2023-11-15T11:49:01.107Z,100595.24
2023-11-15T11:51:31.625Z,100597.77
2023-11-15T11:54:02.363Z,100589.27
2023-11-15T11:56:33.445Z,100592.95
2023-11-15T11:59:13.659Z,100592.16
2023-11-15T12:01:54.057Z,100595.22
2023-11-15T12:04:24.912Z,100595.55
2023-11-15T12:06:56.353Z,100601.59
2023-11-15T12:09:41.184Z,100601.13
2023-11-15T12:12:14.595Z,100594.17
2023-11-15T12:14:53.677Z,100592.80
2023-11-15T12:17:24.200Z,100590.60
2023-11-15T12:19:54.707Z,100586.79
2023-11-15T12:22:26.150Z,100583.80
2023-11-15T12:24:58.398Z,100577.25
2023-11-15T12:27:28.997Z,100576.27
2023-11-15T12:30:02.936Z,100575.17
2023-11-15T12:32:35.273Z,100574.36
2023-11-15T12:35:10.167Z,100567.17
2023-11-15T12:37:42.384Z,100566.20
2023-11-15T12:40:22.278Z,100567.71
2023-11-15T12:42:55.914Z,100573.70
2023-11-15T12:45:35.211Z,100573.98
2023-11-15T12:48:09.689Z,100577.09
2023-11-15T12:50:41.254Z,100576.39
2023-11-15T12:53:14.717Z,100582.65
2023-11-15T12:55:55.736Z,100582.95
2023-11-15T12:58:49.643Z,100581.44
2023-11-15T13:01:20.915Z,100583.54
2023-11-15T13:03:58.123Z,100580.61
2023-11-15T13:06:37.069Z,100580.63
2023-11-15T13:09:13.214Z,100583.42
2023-11-15T13:11:46.450Z,100585.27
2023-11-15T13:14:23.354Z,100587.03
2023-11-15T13:16:53.921Z,100587.19
2023-11-15T13:19:26.256Z,100591.86
2023-11-15T13:21:58.387Z,100590.08
2023-11-15T13:24:29.099Z,100590.77
2023-11-15T13:26:59.643Z,100589.02
2023-11-15T13:29:29.957Z,100593.33
2023-11-15T13:32:00.382Z,100593.29
2023-11-15T13:34:31.011Z,100592.27
2023-11-15T13:37:01.697Z,100590.77
2023-11-15T13:39:33.764Z,100592.75
2023-11-15T13:42:04.265Z,100588.96
2023-11-15T13:44:34.693Z,100588.45
2023-11-15T13:47:07.910Z,100591.73
2023-11-15T13:49:39.297Z,100586.18
2023-11-15T13:52:08.591Z,100590.84
2023-11-15T13:54:39.250Z,100589.60
2023-11-15T13:57:10.030Z,100595.23
2023-11-15T13:59:42.552Z,100603.36
2023-11-15T14:02:14.693Z,100597.63
2023-11-15T14:04:45.131Z,100601.36
2023-11-15T14:07:17.311Z,100598.60
2023-11-15T14:09:47.762Z,100606.05
2023-11-15T14:12:29.393Z,100612.11
2023-11-15T14:14:59.894Z,100621.80
2023-11-15T14:17:36.548Z,100627.30
2023-11-15T14:20:27.773Z,100627.02
2023-11-15T14:22:58.878Z,100626.75
2023-11-15T14:25:34.345Z,100629.23
2023-11-15T14:28:06.521Z,100624.86
2023-11-15T14:30:37.052Z,100628.63
2023-11-15T14:33:09.879Z,100635.39
2023-11-15T14:35:51.596Z,100637.49
2023-11-15T14:38:29.473Z,100648.83
2023-11-15T14:41:02.008Z,100655.11
2023-11-15T14:43:38.493Z,100658.87
2023-11-15T14:46:32.078Z,100666.84
2023-11-15T14:49:08.480Z,100667.73
2023-11-15T14:52:11.313Z,100664.73
2023-11-15T14:54:53.684Z,100669.93
2023-11-15T14:57:24.229Z,100665.18
2023-11-15T14:59:57.803Z,100666.26
2023-11-15T15:02:28.313Z,100671.79
2023-11-15T15:05:06.891Z,100671.60
2023-11-15T15:07:37.991Z,100673.71
2023-11-15T15:10:11.797Z,100674.10
2023-11-15T15:12:44.169Z,100671.88
2023-11-15T15:15:18.723Z,100669.04
2023-11-15T15:17:50.905Z,100669.89
2023-11-15T15:20:21.535Z,100664.51
2023-11-15T15:22:54.278Z,100666.45
2023-11-15T15:25:27.123Z,100667.36
2023-11-15T15:27:57.914Z,100667.16
2023-11-15T15:30:34.001Z,100666.96
2023-11-15T15:33:08.327Z,100666.04
2023-11-15T15:35:40.288Z,100669.92
2023-11-15T15:38:13.286Z,100675.20
2023-11-15T15:40:47.246Z,100682.67
2023-11-15T15:43:22.122Z,100683.15
2023-11-15T15:45:54.304Z,100690.15
2023-11-15T15:48:25.040Z,100693.33
2023-11-15T15:50:55.695Z,100695.02
2023-11-15T15:53:26.183Z,100699.60
2023-11-15T15:56:06.586Z,100702.04
2023-11-15T15:58:37.240Z,100706.80
2023-11-15T16:01:09.221Z,100707.02
2023-11-15T16:03:39.788Z,100711.84
2023-11-15T16:06:11.307Z,100715.98
2023-11-15T16:09:00.542Z,100719.01
2023-11-15T16:11:31.212Z,100722.00
2023-11-15T16:14:02.264Z,100724.02
2023-11-15T16:16:32.762Z,100725.96
2023-11-15T16:19:03.234Z,100723.81
2023-11-15T16:21:33.581Z,100726.21
2023-11-15T16:24:04.253Z,100731.69
2023-11-15T16:26:34.707Z,100735.91
2023-11-15T16:29:05.376Z,100742.61
2023-11-15T16:31:35.984Z,100743.11
2023-11-15T16:34:07.404Z,100739.02
2023-11-15T16:36:37.820Z,100740.34
2023-11-15T16:39:11.565Z,100743.63
2023-11-15T16:41:51.466Z,100752.33
2023-11-15T16:44:22.851Z,100750.20
2023-11-15T16:46:54.626Z,100749.86
2023-11-15T16:49:26.149Z,100755.26
2023-11-15T16:51:56.884Z,100760.80
2023-11-15T16:54:27.928Z,100764.96
2023-11-15T16:56:59.186Z,100769.45
2023-11-15T16:59:30.067Z,100781.83
2023-11-15T17:02:00.701Z,100786.48
2023-11-15T17:04:31.195Z,100784.05
2023-11-15T17:07:04.262Z,100784.75
2023-11-15T17:09:38.060Z,100785.94
2023-11-15T17:12:17.783Z,100788.85
2023-11-15T17:14:48.222Z,100791.26
2023-11-15T17:17:18.863Z,100792.27
2023-11-15T17:19:52.425Z,100799.73
2023-11-15T17:22:24.087Z,100801.21
2023-11-15T17:24:56.846Z,100803.81
2023-11-15T17:27:27.286Z,100803.83
2023-11-15T17:29:59.462Z,100805.13
2023-11-15T17:32:30.339Z,100805.38
2023-11-15T17:35:06.654Z,100807.02
2023-11-15T17:37:37.870Z,100804.11
2023-11-15T17:40:14.103Z,100806.15
2023-11-15T17:42:47.115Z,100809.81
2023-11-15T17:45:17.854Z,100814.13
2023-11-15T17:47:48.430Z,100819.31
2023-11-15T17:50:22.280Z,100822.62
2023-11-15T17:52:59.210Z,100828.23
2023-11-15T17:55:29.813Z,100827.95
2023-11-15T17:58:04.710Z,100820.70
2023-11-15T18:00:48.534Z,100823.50
2023-11-15T18:03:19.285Z,100829.96
2023-11-15T18:05:53.204Z,100824.80
2023-11-15T18:08:28.331Z,100820.39
2023-11-15T18:10:58.904Z,100818.25
2023-11-15T18:13:30.038Z,100816.95
2023-11-15T18:16:00.507Z,100818.08
2023-11-15T18:18:34.509Z,100822.53
2023-11-15T18:21:05.291Z,100822.56
2023-11-15T18:23:37.233Z,100825.27
2023-11-15T18:26:23.670Z,100827.52
2023-11-15T18:29:14.394Z,100827.30
2023-11-15T18:32:05.277Z,100827.05
2023-11-15T18:34:41.368Z,100827.55
2023-11-15T18:37:15.237Z,100828.54
2023-11-15T18:39:49.497Z,100823.77
2023-11-15T18:42:24.932Z,100821.29
2023-11-15T18:45:15.793Z,100822.86
2023-11-15T18:47:46.436Z,100819.52
2023-11-15T18:50:37.222Z,100812.84
2023-11-15T18:53:10.271Z,100813.36
2023-11-15T18:55:54.852Z,100812.31
2023-11-15T18:58:27.961Z,100807.39
2023-11-15T19:01:01.847Z,100810.03
2023-11-15T19:03:40.977Z,100810.55
2023-11-15T19:06:14.169Z,100809.73
2023-11-15T19:09:06.365Z,100815.92
2023-11-15T19:11:52.644Z,100820.17
2023-11-15T19:14:26.604Z,100814.16
2023-11-15T19:17:20.135Z,100814.52
2023-11-15T19:20:03.276Z,100815.98
2023-11-15T19:22:48.178Z,100820.42
2023-11-15T19:25:29.215Z,100820.31
2023-11-15T19:28:16.554Z,100819.50
2023-11-15T19:31:07.919Z,100815.86
2023-11-15T19:33:58.667Z,100815.20
2023-11-15T19:36:49.383Z,100810.83
2023-11-15T19:39:40.074Z,100803.81
2023-11-15T19:42:21.904Z,100804.73
2023-11-15T19:45:14.189Z,100798.45
2023-11-15T19:48:06.106Z,100799.52
2023-11-15T19:50:41.177Z,100798.48
2023-11-15T19:53:31.933Z,100796.22
2023-11-15T19:56:06.765Z,100795.83
2023-11-15T19:58:51.224Z,100799.19
2023-11-15T20:01:42.776Z,100797.64
2023-11-15T20:04:17.190Z,100798.54
2023-11-15T20:07:01.917Z,100799.58
2023-11-15T20:09:54.037Z,100799.58
2023-11-15T20:12:37.519Z,100800.09
2023-11-15T20:15:28.420Z,100803.63
2023-11-15T20:18:09.935Z,100805.38
2023-11-15T20:20:42.413Z,100801.16
2023-11-15T20:23:19.075Z,100805.56
2023-11-15T20:26:09.821Z,100806.08
2023-11-15T20:29:00.771Z,100808.22
2023-11-15T20:31:44.160Z,100807.36
2023-11-15T20:34:26.053Z,100807.55
2023-11-15T20:37:06.876Z,100803.52
2023-11-15T20:39:40.024Z,100802.84
2023-11-15T20:42:14.201Z,100801.65
2023-11-15T20:45:05.256Z,100802.71
2023-11-15T20:47:48.532Z,100797.27
2023-11-15T20:50:24.349Z,100801.13
2023-11-15T20:52:54.927Z,100795.85
2023-11-15T20:55:27.201Z,100791.64
2023-11-15T20:58:07.481Z,100786.90
2023-11-15T21:00:38.355Z,100786.90
2023-11-15T21:03:19.683Z,100788.66
2023-11-15T21:05:50.530Z,100791.00
2023-11-15T21:08:23.979Z,100790.16
2023-11-15T21:11:08.913Z,100792.50
2023-11-15T21:14:00.919Z,100792.17
2023-11-15T21:16:32.313Z,100793.77
2023-11-15T21:19:23.032Z,100795.34
2023-11-15T21:21:58.889Z,100791.48
2023-11-15T21:24:29.226Z,100797.08
2023-11-15T21:27:02.132Z,100800.95
2023-11-15T21:29:43.766Z,100810.29
2023-11-15T21:32:14.197Z,100808.35
2023-11-15T21:34:48.928Z,100814.95
2023-11-15T21:37:22.641Z,100816.65
2023-11-15T21:39:55.893Z,100814.58
2023-11-15T21:42:36.460Z,100805.85
2023-11-15T21:45:08.548Z,100806.70
2023-11-15T21:47:39.643Z,100805.09
2023-11-15T21:50:15.617Z,100796.10
2023-11-15T21:53:06.349Z,100796.63
2023-11-15T21:55:59.787Z,100791.94
2023-11-15T21:58:51.159Z,100785.98
2023-11-15T22:01:41.976Z,100784.48
2023-11-15T22:04:23.577Z,100780.40
2023-11-15T22:07:07.823Z,100780.36
2023-11-15T22:09:40.866Z,100781.00
2023-11-15T22:12:12.025Z,100781.12
2023-11-15T22:14:44.753Z,100783.48
2023-11-15T22:17:18.240Z,100776.77
2023-11-15T22:19:48.753Z,100773.92
2023-11-15T22:22:19.222Z,100772.95
2023-11-15T22:24:49.850Z,100772.58
2023-11-15T22:27:23.041Z,100769.35
2023-11-15T22:30:03.840Z,100771.15
2023-11-15T22:32:38.478Z,100771.40
2023-11-15T22:35:29.170Z,100776.02
2023-11-15T22:38:08.720Z,100770.27
2023-11-15T22:40:39.212Z,100770.83
2023-11-15T22:43:13.948Z,100771.90
2023-11-15T22:45:47.019Z,100767.67
2023-11-15T22:48:17.811Z,100769.10
2023-11-15T22:50:48.411Z,100766.82
2023-11-15T22:53:20.485Z,100764.52
2023-11-15T22:55:53.234Z,100767.63
2023-11-15T22:58:26.206Z,100761.80
2023-11-15T23:00:59.857Z,100755.95
2023-11-15T23:03:53.232Z,100753.10
2023-11-15T23:06:45.177Z,100752.36
2023-11-15T23:09:19.337Z,100753.15
2023-11-15T23:11:49.859Z,100753.64
2023-11-15T23:14:20.582Z,100756.25
2023-11-15T23:16:54.059Z,100759.03
2023-11-15T23:19:24.436Z,100751.66
2023-11-15T23:22:04.564Z,100754.46
2023-11-15T23:24:46.167Z,100749.84
2023-11-15T23:27:37.143Z,100750.90
2023-11-15T23:30:10.434Z,100753.33
2023-11-15T23:32:40.886Z,100750.85
2023-11-15T23:35:13.648Z,100750.98
2023-11-15T23:37:44.056Z,100755.36
2023-11-15T23:40:18.973Z,100760.04
2023-11-15T23:42:55.173Z,100759.97
2023-11-15T23:45:29.387Z,100752.14
2023-11-15T23:48:03.235Z,100761.29
2023-11-15T23:50:36.007Z,100761.48
2023-11-15T23:53:07.536Z,100768.46
2023-11-15T23:55:39.648Z,100764.59
2023-11-15T23:58:13.680Z,100769.30
